Time;durP1;ratioP1;P1;durP2;ratioP2;P2;SDS_P1;SDS_P2;PMS_P1;PMS_P2;Temp;Humidity;BMP_temperature;BMP_pressure;BME280_temperature;BME280_humidity;BME280_pressure;Samples;Min_cycle;Max_cycle;Signal;HPM_P1;HPM_P2
2023/08/18 00:01:28;;;;;;;6.73;6.00;;;19.70;99.90;;;;;;5005512;28;20481;-86
2023/08/18 00:03:56;;;;;;;7.07;6.37;;;19.70;99.90;;;;;;5009675;28;20541;-86
2023/08/18 00:06:23;;;;;;;7.00;6.00;;;19.60;99.90;;;;;;5011707;28;20711;-86
2023/08/18 00:08:51;;;;;;;12.00;6.27;;;19.60;99.90;;;;;;5005370;28;20463;-86
2023/08/18 00:11:17;;;;;;;7.20;6.60;;;19.60;99.90;;;;;;5003360;28;20464;-85
2023/08/18 00:13:44;;;;;;;7.83;7.03;;;19.60;99.90;;;;;;5005839;28;20971;-86
2023/08/18 00:16:11;;;;;;;7.43;6.73;;;19.50;99.90;;;;;;5008547;28;20936;-86
2023/08/18 00:18:37;;;;;;;7.03;6.50;;;19.60;99.90;;;;;;5004192;28;20510;-86
2023/08/18 00:21:05;;;;;;;6.60;6.00;;;19.50;99.90;;;;;;5003417;28;20471;-86
2023/08/18 00:23:32;;;;;;;8.10;6.37;;;19.50;99.90;;;;;;5005667;28;20451;-85
2023/08/18 00:25:59;;;;;;;15.43;7.20;;;19.60;99.90;;;;;;5008149;28;20892;-87
2023/08/18 00:28:25;;;;;;;9.70;6.77;;;19.50;99.90;;;;;;5004406;28;20471;-87
2023/08/18 00:30:52;;;;;;;7.13;6.50;;;19.30;99.90;;;;;;5005530;28;20880;-87
2023/08/18 00:33:19;;;;;;;7.73;7.03;;;19.30;99.90;;;;;;5007473;28;20948;-87
2023/08/18 00:35:45;;;;;;;8.73;7.57;;;19.30;99.90;;;;;;5005137;28;20821;-85
2023/08/18 00:38:13;;;;;;;10.70;7.87;;;19.30;99.90;;;;;;5008743;28;20492;-87
2023/08/18 00:40:40;;;;;;;8.40;7.57;;;19.20;99.90;;;;;;5006857;28;20458;-86
2023/08/18 00:43:07;;;;;;;10.77;7.20;;;19.30;99.90;;;;;;5007595;28;20489;-86
2023/08/18 00:45:34;;;;;;;8.70;7.47;;;19.30;99.90;;;;;;5003003;28;20907;-87
2023/08/18 00:48:01;;;;;;;9.93;7.40;;;19.10;99.90;;;;;;5004546;28;20611;-87
2023/08/18 00:50:28;;;;;;;17.23;8.70;;;19.20;99.90;;;;;;5004819;28;20468;-86
2023/08/18 00:52:59;;;;;;;9.27;8.17;;;19.20;99.90;;;;;;5009461;28;20458;-87
2023/08/18 00:55:28;;;;;;;8.80;7.57;;;19.20;99.90;;;;;;5004896;28;20509;-87
2023/08/18 00:57:56;;;;;;;8.93;7.80;;;19.20;99.90;;;;;;5012031;28;20474;-87
2023/08/18 01:00:23;;;;;;;10.93;8.00;;;19.10;99.90;;;;;;5024537;28;20423;-88
2023/08/18 01:02:50;;;;;;;18.53;7.90;;;19.10;99.90;;;;;;5037101;28;20550;-88
2023/08/18 01:05:17;;;;;;;12.37;8.30;;;19.00;99.90;;;;;;5015933;28;20503;-86
2023/08/18 01:07:44;;;;;;;8.90;8.10;;;19.00;99.90;;;;;;5005948;28;20552;-86
2023/08/18 01:10:11;;;;;;;7.80;7.10;;;19.10;99.90;;;;;;4998128;28;20459;-86
2023/08/18 01:12:46;;;;;;;9.43;7.90;;;19.00;99.90;;;;;;5013843;28;20454;-87
2023/08/18 01:15:16;;;;;;;8.93;8.07;;;19.00;99.90;;;;;;4999813;28;20507;-87
2023/08/18 01:17:50;;;;;;;14.80;8.17;;;19.00;99.90;;;;;;5004533;28;20478;-87
2023/08/18 01:20:17;;;;;;;9.23;8.27;;;18.90;99.90;;;;;;5004897;28;20486;-86
2023/08/18 01:22:45;;;;;;;11.27;8.80;;;18.90;99.90;;;;;;5005667;28;20469;-86
2023/08/18 01:25:13;;;;;;;9.33;8.43;;;18.80;99.90;;;;;;5000003;28;20458;-86
2023/08/18 01:27:40;;;;;;;9.60;8.70;;;18.70;99.90;;;;;;4996414;28;20475;-86
2023/08/18 01:30:08;;;;;;;10.20;9.30;;;18.80;99.90;;;;;;5010536;28;20462;-86
2023/08/18 01:32:52;;;;;;;9.20;8.30;;;18.80;99.90;;;;;;5002629;28;20471;-87
2023/08/18 01:35:21;;;;;;;9.90;8.90;;;18.80;99.90;;;;;;5004625;28;20446;-86
2023/08/18 01:37:50;;;;;;;12.30;9.50;;;18.80;99.90;;;;;;5004532;28;20505;-87
2023/08/18 01:40:20;;;;;;;11.13;10.03;;;18.80;99.90;;;;;;5005888;28;20457;-87
2023/08/18 01:42:48;;;;;;;16.47;10.50;;;18.80;99.90;;;;;;5004871;28;20454;-86
2023/08/18 01:45:15;;;;;;;14.77;11.43;;;18.70;99.90;;;;;;5004118;28;20463;-87
2023/08/18 01:47:41;;;;;;;15.77;11.90;;;18.70;99.90;;;;;;5002813;28;20972;-87
2023/08/18 01:50:09;;;;;;;15.27;10.70;;;18.70;99.90;;;;;;5007503;28;20447;-87
2023/08/18 01:52:36;;;;;;;19.13;12.47;;;18.70;99.90;;;;;;5010112;28;20454;-87
2023/08/18 01:55:02;;;;;;;15.17;12.27;;;18.70;99.90;;;;;;5002868;28;20467;-87
2023/08/18 01:57:30;;;;;;;14.47;12.60;;;18.60;99.90;;;;;;5007116;28;20508;-88
2023/08/18 01:59:57;;;;;;;20.53;13.23;;;18.60;99.90;;;;;;4995042;28;20451;-87
2023/08/18 02:02:24;;;;;;;25.57;13.83;;;18.60;99.90;;;;;;5003665;28;20829;-86
2023/08/18 02:04:51;;;;;;;22.90;13.47;;;18.60;99.90;;;;;;5002134;28;20442;-88
2023/08/18 02:07:17;;;;;;;24.30;15.80;;;18.40;99.90;;;;;;5007257;28;20501;-88
2023/08/18 02:09:44;;;;;;;20.20;14.00;;;18.50;99.90;;;;;;5004389;28;20462;-87
2023/08/18 02:12:10;;;;;;;22.67;15.87;;;18.50;99.90;;;;;;5004333;28;20520;-87
2023/08/18 02:14:38;;;;;;;18.83;15.57;;;18.50;99.90;;;;;;5007164;28;20458;-88
2023/08/18 02:17:05;;;;;;;20.17;16.00;;;18.40;99.90;;;;;;5011225;28;20478;-87
2023/08/18 02:19:32;;;;;;;21.10;16.07;;;18.40;99.90;;;;;;5011029;28;20544;-88
2023/08/18 02:21:59;;;;;;;20.27;16.20;;;18.40;99.90;;;;;;5009263;28;20459;-88
2023/08/18 02:24:25;;;;;;;23.27;15.97;;;18.40;99.90;;;;;;5011022;28;20450;-87
2023/08/18 02:26:52;;;;;;;20.53;15.83;;;18.30;99.90;;;;;;5004185;28;20498;-88
2023/08/18 02:29:19;;;;;;;20.43;15.43;;;18.30;99.90;;;;;;5003099;28;20462;-87
2023/08/18 02:31:47;;;;;;;22.17;16.83;;;18.30;99.90;;;;;;5011325;28;20524;-87
2023/08/18 02:34:14;;;;;;;20.43;16.70;;;18.50;99.90;;;;;;5011838;28;20484;-87
2023/08/18 02:36:41;;;;;;;23.73;17.50;;;18.30;99.90;;;;;;5011187;28;20470;-88
2023/08/18 02:39:07;;;;;;;20.40;16.03;;;18.30;99.90;;;;;;5011009;28;20458;-87
2023/08/18 02:41:34;;;;;;;28.83;17.50;;;18.30;99.90;;;;;;5007508;28;20545;-87
2023/08/18 02:44:03;;;;;;;22.30;17.07;;;18.30;99.90;;;;;;5008404;28;20488;-87
2023/08/18 02:46:29;;;;;;;22.90;18.27;;;18.30;99.90;;;;;;5001429;28;20495;-87
2023/08/18 02:48:57;;;;;;;20.90;16.97;;;18.20;99.90;;;;;;5005043;28;20508;-87
2023/08/18 02:51:24;;;;;;;24.30;18.10;;;18.20;99.90;;;;;;5007021;28;20488;-87
2023/08/18 02:53:50;;;;;;;25.63;18.23;;;18.20;99.90;;;;;;5001280;28;20454;-86
2023/08/18 02:56:17;;;;;;;23.53;18.27;;;18.20;99.90;;;;;;5010848;28;21152;-87
2023/08/18 02:58:44;;;;;;;23.13;18.80;;;18.20;99.90;;;;;;5007805;28;20478;-87
2023/08/18 03:01:10;;;;;;;23.27;18.17;;;18.30;99.90;;;;;;5010159;28;20676;-88
2023/08/18 03:03:37;;;;;;;24.90;18.23;;;18.20;99.90;;;;;;5011977;28;20628;-88
2023/08/18 03:06:06;;;;;;;25.13;19.50;;;18.30;99.90;;;;;;5007716;28;20512;-85
2023/08/18 03:08:35;;;;;;;21.97;17.63;;;18.40;99.90;;;;;;5006158;28;20569;-87
2023/08/18 03:11:03;;;;;;;24.33;18.60;;;18.20;99.90;;;;;;5011761;28;20550;-88
2023/08/18 03:13:29;;;;;;;25.77;18.40;;;18.20;99.90;;;;;;5011574;28;20459;-88
2023/08/18 03:15:56;;;;;;;28.17;18.63;;;18.20;99.90;;;;;;5006716;28;20520;-88
2023/08/18 03:18:23;;;;;;;24.37;18.77;;;18.10;99.90;;;;;;4998105;28;20470;-88
2023/08/18 03:20:50;;;;;;;24.60;18.50;;;18.10;99.90;;;;;;5011361;28;20557;-87
2023/08/18 03:23:19;;;;;;;24.87;18.97;;;18.10;99.90;;;;;;5006659;28;20501;-88
2023/08/18 03:25:46;;;;;;;28.00;20.80;;;18.10;99.90;;;;;;5004374;28;20461;-88
2023/08/18 03:28:13;;;;;;;28.03;20.10;;;18.10;99.90;;;;;;5011088;28;20517;-88
2023/08/18 03:30:40;;;;;;;27.80;18.47;;;18.10;99.90;;;;;;4998672;28;20481;-88
2023/08/18 03:33:08;;;;;;;26.63;20.60;;;18.10;99.90;;;;;;5009990;28;20462;-87
2023/08/18 03:35:36;;;;;;;27.73;19.97;;;18.00;99.90;;;;;;5006211;28;20471;-88
2023/08/18 03:38:03;;;;;;;29.60;20.33;;;18.10;99.90;;;;;;5006824;28;20506;-88
2023/08/18 03:40:32;;;;;;;26.90;19.03;;;18.10;99.90;;;;;;5012947;28;20888;-87
2023/08/18 03:42:59;;;;;;;27.07;20.37;;;18.10;99.90;;;;;;5008033;28;20521;-87
2023/08/18 03:45:26;;;;;;;30.90;22.53;;;18.00;99.90;;;;;;5006095;28;20469;-87
2023/08/18 03:47:52;;;;;;;27.50;20.77;;;18.10;99.90;;;;;;5010266;28;20840;-87
2023/08/18 03:50:21;;;;;;;32.90;21.67;;;18.00;99.90;;;;;;5006828;28;20887;-88
2023/08/18 03:52:48;;;;;;;31.53;20.03;;;18.00;99.90;;;;;;5014757;28;20462;-88
2023/08/18 03:55:14;;;;;;;32.80;23.03;;;18.00;99.90;;;;;;5015265;28;20458;-87
2023/08/18 03:57:42;;;;;;;29.20;22.27;;;18.00;99.90;;;;;;5014058;28;20991;-87
2023/08/18 04:00:10;;;;;;;30.77;21.17;;;18.00;99.90;;;;;;5012134;28;20541;-87
2023/08/18 04:02:37;;;;;;;30.90;21.17;;;18.00;99.90;;;;;;5009852;28;20437;-88
2023/08/18 04:05:04;;;;;;;27.60;21.53;;;18.00;99.90;;;;;;5013619;28;20417;-87
2023/08/18 04:07:31;;;;;;;32.53;21.60;;;18.00;99.90;;;;;;5014692;28;20490;-88
2023/08/18 04:09:58;;;;;;;38.00;22.73;;;18.00;99.90;;;;;;5021487;28;20421;-90
2023/08/18 04:12:25;;;;;;;31.23;21.47;;;18.00;99.90;;;;;;5027494;28;20459;-88
2023/08/18 04:14:53;;;;;;;28.87;21.87;;;18.00;99.90;;;;;;5014588;28;20447;-87
2023/08/18 04:17:19;;;;;;;37.60;21.43;;;18.00;99.90;;;;;;5012038;28;20474;-87
2023/08/18 04:19:46;;;;;;;34.90;22.70;;;18.00;99.90;;;;;;5013982;28;20495;-88
2023/08/18 04:22:13;;;;;;;27.90;20.93;;;18.00;99.90;;;;;;5014301;28;20523;-87
2023/08/18 04:24:40;;;;;;;30.30;22.00;;;18.00;99.90;;;;;;5004548;28;20465;-87
2023/08/18 04:27:06;;;;;;;28.90;19.80;;;18.00;99.90;;;;;;5010539;28;20496;-87
2023/08/18 04:29:33;;;;;;;26.33;19.23;;;18.00;99.90;;;;;;5013569;28;20425;-88
2023/08/18 04:32:01;;;;;;;28.60;19.63;;;18.00;99.90;;;;;;5008909;28;20473;-88
2023/08/18 04:34:28;;;;;;;27.50;19.60;;;18.00;99.90;;;;;;5014288;28;20927;-88
2023/08/18 04:36:54;;;;;;;26.83;19.50;;;18.10;99.90;;;;;;5013542;28;20470;-85
2023/08/18 04:39:22;;;;;;;29.27;21.07;;;18.00;99.90;;;;;;5007123;28;20465;-87
2023/08/18 04:41:48;;;;;;;31.97;20.90;;;18.00;99.90;;;;;;5010136;28;20465;-87
2023/08/18 04:44:15;;;;;;;32.20;20.30;;;18.00;99.90;;;;;;5013128;28;20454;-88
2023/08/18 04:46:41;;;;;;;31.40;20.80;;;18.00;99.90;;;;;;5004836;28;20464;-87
2023/08/18 04:49:09;;;;;;;35.93;21.30;;;18.00;99.90;;;;;;5006630;28;20466;-87
2023/08/18 04:51:36;;;;;;;29.80;21.53;;;18.00;99.90;;;;;;5013454;28;20462;-88
2023/08/18 04:54:03;;;;;;;33.93;23.07;;;18.10;99.90;;;;;;5002756;28;20456;-88
2023/08/18 04:56:30;;;;;;;27.57;20.37;;;18.10;99.90;;;;;;5012245;28;20454;-87
2023/08/18 04:58:57;;;;;;;26.30;19.67;;;18.20;99.90;;;;;;5010285;28;20913;-88
2023/08/18 05:01:24;;;;;;;30.07;18.73;;;18.20;99.90;;;;;;5011555;28;20949;-87
2023/08/18 05:03:50;;;;;;;27.27;19.20;;;18.30;99.90;;;;;;5013602;28;20857;-88
2023/08/18 05:06:19;;;;;;;22.70;17.80;;;18.30;99.90;;;;;;5012218;28;20818;-88
2023/08/18 05:08:46;;;;;;;21.43;16.47;;;18.40;99.90;;;;;;5012848;28;20478;-87
2023/08/18 05:11:13;;;;;;;25.20;18.73;;;18.40;99.90;;;;;;5012797;28;20450;-88
2023/08/18 05:13:42;;;;;;;24.83;17.77;;;18.40;99.90;;;;;;5011127;28;20454;-88
2023/08/18 05:16:09;;;;;;;22.97;17.87;;;18.50;99.90;;;;;;5005226;28;20451;-87
2023/08/18 05:18:37;;;;;;;26.37;17.47;;;18.40;99.90;;;;;;5005320;28;20489;-88
2023/08/18 05:21:04;;;;;;;23.90;18.07;;;18.50;99.90;;;;;;5008215;28;20463;-88
2023/08/18 05:23:32;;;;;;;19.70;16.40;;;18.50;99.90;;;;;;5004867;28;20458;-88
2023/08/18 05:25:59;;;;;;;22.47;16.17;;;18.60;99.90;;;;;;5000209;28;20983;-87
2023/08/18 05:28:28;;;;;;;27.93;16.60;;;18.60;99.90;;;;;;5003537;28;20495;-88
2023/08/18 05:30:54;;;;;;;26.23;16.97;;;18.60;99.90;;;;;;5011799;28;20454;-89
2023/08/18 05:33:21;;;;;;;20.33;17.00;;;18.60;99.90;;;;;;5013210;28;20466;-89
2023/08/18 05:35:48;;;;;;;21.23;16.10;;;18.60;99.90;;;;;;5012708;28;20454;-89
2023/08/18 05:38:15;;;;;;;20.70;15.93;;;18.70;99.90;;;;;;5006513;28;20502;-89
2023/08/18 05:40:45;;;;;;;20.63;16.70;;;18.80;99.90;;;;;;5014415;28;20454;-89
2023/08/18 05:43:13;;;;;;;21.00;15.50;;;18.80;99.90;;;;;;4996875;28;20466;-88
2023/08/18 05:45:42;;;;;;;22.50;15.70;;;18.90;99.90;;;;;;5008013;28;20455;-88
2023/08/18 05:48:08;;;;;;;20.73;14.13;;;19.00;99.90;;;;;;5011769;28;20505;-89
2023/08/18 05:50:35;;;;;;;19.27;15.20;;;19.10;99.90;;;;;;5003024;28;20463;-88
2023/08/18 05:53:03;;;;;;;21.30;15.80;;;19.10;99.90;;;;;;5002934;28;20463;-89
2023/08/18 05:55:30;;;;;;;21.47;16.37;;;19.20;99.90;;;;;;5010809;28;20862;-89
2023/08/18 05:58:00;;;;;;;23.37;16.30;;;19.30;99.90;;;;;;5010803;28;20477;-88
2023/08/18 06:00:27;;;;;;;16.53;13.80;;;19.40;99.90;;;;;;4998105;28;20458;-88
2023/08/18 06:02:54;;;;;;;20.40;14.33;;;19.50;99.90;;;;;;5006030;28;20446;-89
2023/08/18 06:05:21;;;;;;;16.37;12.90;;;19.60;99.90;;;;;;5012079;28;20474;-88
2023/08/18 06:07:47;;;;;;;12.40;11.10;;;19.60;99.90;;;;;;5004148;28;20489;-87
2023/08/18 06:10:14;;;;;;;14.70;12.23;;;19.70;99.90;;;;;;4997755;28;20447;-89
2023/08/18 06:12:41;;;;;;;15.60;12.43;;;19.80;99.90;;;;;;5006440;28;20442;-88
2023/08/18 06:15:10;;;;;;;20.77;12.00;;;19.90;99.90;;;;;;5013249;28;20932;-89
2023/08/18 06:17:37;;;;;;;12.13;9.60;;;19.90;99.90;;;;;;4998531;28;20900;-89
2023/08/18 06:20:05;;;;;;;19.67;10.73;;;20.10;99.90;;;;;;5005214;28;20473;-87
2023/08/18 06:22:32;;;;;;;12.77;10.97;;;20.30;99.90;;;;;;5002091;28;20463;-88
2023/08/18 06:24:58;;;;;;;13.43;11.90;;;20.50;99.90;;;;;;5002062;28;20463;-88
2023/08/18 06:27:25;;;;;;;15.97;10.70;;;20.60;99.90;;;;;;5001406;28;20507;-90
2023/08/18 06:29:52;;;;;;;16.57;11.43;;;20.70;99.90;;;;;;5009015;28;20462;-88
2023/08/18 06:32:20;;;;;;;16.60;10.87;;;20.80;99.90;;;;;;5003988;28;20478;-89
2023/08/18 06:34:47;;;;;;;14.10;11.00;;;20.80;99.90;;;;;;5002727;28;20459;-89
2023/08/18 06:37:14;;;;;;;13.33;11.23;;;21.00;99.90;;;;;;5011520;28;20474;-89
2023/08/18 06:39:40;;;;;;;11.17;9.73;;;21.40;99.90;;;;;;5004973;28;20466;-88
2023/08/18 06:42:07;;;;;;;11.40;10.10;;;21.60;99.90;;;;;;5005456;28;20505;-88
2023/08/18 06:44:34;;;;;;;12.10;10.53;;;21.90;99.90;;;;;;5001332;28;20459;-88
2023/08/18 06:47:01;;;;;;;10.83;9.10;;;21.80;99.90;;;;;;5001584;28;20878;-88
2023/08/18 06:49:29;;;;;;;15.47;9.67;;;21.90;99.90;;;;;;5002141;28;20463;-89
2023/08/18 06:51:56;;;;;;;11.23;9.93;;;22.00;99.90;;;;;;5005872;28;20458;-89
2023/08/18 06:54:22;;;;;;;13.63;7.30;;;22.20;99.90;;;;;;4997253;28;20455;-88
2023/08/18 06:56:49;;;;;;;11.80;9.70;;;22.20;99.90;;;;;;5004704;28;20466;-87
2023/08/18 06:59:16;;;;;;;10.63;9.53;;;22.20;99.90;;;;;;5011401;28;20485;-87
2023/08/18 07:01:42;;;;;;;8.80;8.00;;;22.10;99.90;;;;;;5001419;28;20447;-89
2023/08/18 07:04:09;;;;;;;11.60;9.63;;;22.10;99.90;;;;;;5008573;28;21116;-87
2023/08/18 07:06:37;;;;;;;10.10;8.97;;;22.10;99.90;;;;;;4992153;28;20991;-89
2023/08/18 07:09:04;;;;;;;8.23;7.43;;;22.30;99.90;;;;;;4991914;28;20505;-88
2023/08/18 07:11:31;;;;;;;8.73;7.93;;;22.50;99.90;;;;;;5000561;28;20454;-88
2023/08/18 07:13:58;;;;;;;11.93;8.43;;;22.80;99.90;;;;;;5016296;28;20533;-89
2023/08/18 07:16:25;;;;;;;10.20;7.27;;;23.00;99.90;;;;;;5018962;28;20438;-90
2023/08/18 07:18:51;;;;;;;7.23;6.50;;;23.20;99.90;;;;;;5033590;28;20453;-91
2023/08/18 07:21:18;;;;;;;7.10;6.33;;;23.50;99.90;;;;;;5017393;28;20466;-88
2023/08/18 07:23:46;;;;;;;6.80;6.20;;;23.60;99.90;;;;;;5011328;28;20489;-88
2023/08/18 07:26:13;;;;;;;8.30;6.60;;;23.70;99.90;;;;;;5017107;28;20445;-88
2023/08/18 07:28:40;;;;;;;8.10;5.80;;;23.90;99.90;;;;;;5012693;28;20545;-88
2023/08/18 07:31:07;;;;;;;8.40;5.63;;;24.10;99.90;;;;;;5010505;28;20450;-89
2023/08/18 07:33:34;;;;;;;9.03;5.87;;;24.40;99.90;;;;;;5008562;28;20450;-89
2023/08/18 07:36:01;;;;;;;7.67;5.40;;;24.60;99.90;;;;;;5000895;28;21015;-89
2023/08/18 07:38:28;;;;;;;6.40;5.80;;;24.70;99.90;;;;;;5016007;28;20469;-90
2023/08/18 07:40:56;;;;;;;6.83;5.63;;;24.90;99.90;;;;;;5016066;28;20458;-89
2023/08/18 07:43:23;;;;;;;5.93;5.43;;;24.90;99.90;;;;;;5016212;28;20512;-89
2023/08/18 07:45:49;;;;;;;6.03;4.90;;;25.00;99.90;;;;;;5008468;28;20455;-88
2023/08/18 07:48:16;;;;;;;5.50;5.00;;;25.20;99.90;;;;;;5014073;28;20494;-88
2023/08/18 07:50:43;;;;;;;6.13;5.17;;;25.30;99.90;;;;;;5010613;28;20864;-87
2023/08/18 07:53:10;;;;;;;6.60;5.90;;;25.30;99.90;;;;;;5004848;28;20984;-89
2023/08/18 07:55:37;;;;;;;5.53;4.90;;;25.20;99.90;;;;;;5016941;28;20458;-89
2023/08/18 07:58:05;;;;;;;7.73;4.63;;;25.30;99.90;;;;;;5008321;28;20467;-88
2023/08/18 08:00:32;;;;;;;7.63;5.77;;;25.40;99.90;;;;;;4998827;28;20442;-89
2023/08/18 08:02:59;;;;;;;5.07;4.67;;;25.60;99.90;;;;;;5015444;28;20934;-88
2023/08/18 08:05:26;;;;;;;5.80;5.30;;;25.90;99.90;;;;;;5005590;28;20462;-88
2023/08/18 08:07:53;;;;;;;5.20;4.60;;;26.00;99.90;;;;;;5009380;28;20909;-89
2023/08/18 08:10:20;;;;;;;8.83;5.00;;;26.10;99.90;;;;;;5014398;28;20461;-89
2023/08/18 08:12:48;;;;;;;6.97;4.50;;;26.20;99.90;;;;;;4995869;28;20891;-89
2023/08/18 08:15:16;;;;;;;5.73;4.73;;;26.30;99.90;;;;;;5012179;28;20516;-88
2023/08/18 08:17:43;;;;;;;7.03;5.17;;;26.20;99.90;;;;;;5001851;28;20466;-89
2023/08/18 08:20:15;;;;;;;5.47;5.07;;;26.20;99.90;;;;;;5017712;28;20462;-88
2023/08/18 08:22:42;;;;;;;8.20;4.87;;;26.20;99.90;;;;;;5024912;28;20520;-89
2023/08/18 08:25:10;;;;;;;5.30;4.90;;;26.40;99.90;;;;;;4999790;28;20838;-87
2023/08/18 08:27:37;;;;;;;8.70;4.67;;;26.70;99.90;;;;;;5012720;28;20494;-87
2023/08/18 08:30:05;;;;;;;5.90;4.80;;;26.80;99.90;;;;;;5014343;28;20529;-89
2023/08/18 08:32:33;;;;;;;4.60;4.30;;;26.80;99.90;;;;;;5012069;28;20456;-89
2023/08/18 08:34:59;;;;;;;5.60;4.30;;;26.90;99.90;;;;;;5001690;28;20454;-89
2023/08/18 08:37:26;;;;;;;7.07;4.73;;;26.90;99.90;;;;;;5005956;28;20479;-88
2023/08/18 08:39:53;;;;;;;5.10;4.70;;;26.80;99.90;;;;;;5014893;28;20843;-88
2023/08/18 08:42:19;;;;;;;9.47;4.60;;;26.60;99.90;;;;;;5013181;28;20465;-89
2023/08/18 08:44:46;;;;;;;5.67;5.17;;;26.60;99.90;;;;;;4994864;28;20490;-87
2023/08/18 08:47:13;;;;;;;5.63;5.00;;;26.80;99.90;;;;;;4994401;28;20468;-89
2023/08/18 08:49:44;;;;;;;8.50;5.60;;;26.90;99.90;;;;;;5006711;28;21038;-89
2023/08/18 08:52:13;;;;;;;5.53;5.00;;;27.00;99.90;;;;;;5007471;28;20468;-89
2023/08/18 08:54:47;;;;;;;5.30;3.90;;;27.20;99.90;;;;;;5007673;28;20456;-88
2023/08/18 08:57:14;;;;;;;5.03;4.37;;;27.50;99.90;;;;;;5012486;28;20473;-89
2023/08/18 08:59:41;;;;;;;8.40;4.60;;;27.90;99.90;;;;;;5014970;28;20555;-89
2023/08/18 09:02:08;;;;;;;8.13;4.00;;;27.90;99.90;;;;;;5014889;28;20443;-89
2023/08/18 09:04:34;;;;;;;5.30;4.80;;;28.10;99.90;;;;;;5006296;28;20469;-89
2023/08/18 09:07:03;;;;;;;9.87;4.30;;;28.20;99.90;;;;;;5007116;28;20475;-88
2023/08/18 09:09:30;;;;;;;5.83;4.40;;;28.30;99.90;;;;;;5009575;28;20489;-89
2023/08/18 09:11:59;;;;;;;6.90;4.67;;;28.40;99.90;;;;;;5003976;28;20462;-89
2023/08/18 09:14:28;;;;;;;4.63;4.23;;;28.20;99.90;;;;;;5011510;28;20524;-89
2023/08/18 09:16:54;;;;;;;6.57;4.40;;;28.00;99.90;;;;;;5007147;28;20560;-88
2023/08/18 09:19:22;;;;;;;6.20;5.60;;;28.10;99.90;;;;;;5007179;28;20459;-89
2023/08/18 09:21:50;;;;;;;4.53;4.13;;;28.30;99.90;;;;;;5009094;28;20890;-89
2023/08/18 09:24:21;;;;;;;4.23;3.83;;;28.20;99.90;;;;;;5008625;28;20482;-89
2023/08/18 09:26:48;;;;;;;4.90;4.43;;;27.90;99.90;;;;;;5010088;28;20506;-88
2023/08/18 09:29:15;;;;;;;6.17;4.47;;;27.80;99.90;;;;;;5010204;28;20506;-88
2023/08/18 09:31:43;;;;;;;4.47;4.07;;;27.60;99.90;;;;;;5013592;28;20458;-86
2023/08/18 09:34:19;;;;;;;4.90;4.50;;;27.80;99.90;;;;;;5004076;28;20879;-88
2023/08/18 09:36:52;;;;;;;10.37;4.33;;;27.80;99.90;;;;;;5001976;28;20465;-88
2023/08/18 09:39:20;;;;;;;5.63;3.87;;;28.20;99.90;;;;;;5010768;28;20446;-88
2023/08/18 09:41:49;;;;;;;7.87;4.20;;;28.30;99.90;;;;;;5013477;28;20998;-88
2023/08/18 09:44:16;;;;;;;6.47;3.80;;;28.20;99.90;;;;;;5006784;28;20438;-88
2023/08/18 09:46:47;;;;;;;4.37;3.97;;;28.20;99.90;;;;;;5010657;28;20546;-87
2023/08/18 09:49:17;;;;;;;9.30;4.13;;;28.20;99.90;;;;;;5006807;28;20867;-88
2023/08/18 09:51:44;;;;;;;4.47;4.07;;;28.20;99.90;;;;;;5003715;28;20442;-89
2023/08/18 09:54:13;;;;;;;4.33;3.67;;;28.10;99.90;;;;;;5003418;28;20451;-87
2023/08/18 09:56:42;;;;;;;6.80;4.20;;;28.30;99.90;;;;;;5009719;28;20447;-88
2023/08/18 09:59:17;;;;;;;10.77;4.17;;;28.40;99.90;;;;;;4999934;28;20442;-87
2023/08/18 10:01:45;;;;;;;5.10;4.33;;;28.40;99.90;;;;;;5002408;28;20458;-85
2023/08/18 10:04:12;;;;;;;4.87;4.37;;;28.40;99.90;;;;;;5001072;28;20870;-85
2023/08/18 10:06:40;;;;;;;4.70;3.77;;;28.50;99.90;;;;;;5010696;28;20461;-87
2023/08/18 10:09:07;;;;;;;4.57;3.93;;;28.70;99.90;;;;;;5008030;28;20532;-87
2023/08/18 10:11:35;;;;;;;7.13;4.03;;;28.70;99.90;;;;;;5009188;28;20550;-86
2023/08/18 10:14:05;;;;;;;7.93;4.30;;;28.50;99.90;;;;;;5012459;28;20516;-86
2023/08/18 10:16:34;;;;;;;6.50;4.20;;;28.50;99.90;;;;;;5012531;28;20516;-87
2023/08/18 10:19:00;;;;;;;5.80;4.17;;;28.60;99.90;;;;;;5012931;28;20447;-86
2023/08/18 10:21:28;;;;;;;5.80;4.20;;;28.70;99.90;;;;;;5027758;28;20422;-87
2023/08/18 10:23:54;;;;;;;4.77;4.00;;;28.90;99.90;;;;;;5032420;28;20466;-88
2023/08/18 10:26:23;;;;;;;4.40;3.80;;;28.80;99.90;;;;;;5011038;28;20446;-86
2023/08/18 10:28:50;;;;;;;6.13;4.07;;;29.00;99.90;;;;;;5012420;28;20513;-86
2023/08/18 10:31:20;;;;;;;4.27;3.87;;;29.10;99.90;;;;;;5013555;28;20477;-88
2023/08/18 10:33:49;;;;;;;3.90;3.47;;;28.90;99.90;;;;;;5004432;28;20877;-88
2023/08/18 10:36:21;;;;;;;5.03;3.70;;;28.90;99.90;;;;;;4996751;28;20517;-88
2023/08/18 10:38:48;;;;;;;4.53;4.00;;;28.90;99.90;;;;;;5004516;28;20490;-88
2023/08/18 10:41:25;;;;;;;8.47;3.87;;;29.20;99.90;;;;;;5011865;28;20474;-87
2023/08/18 10:43:56;;;;;;;6.63;4.00;;;29.60;99.90;;;;;;5012517;28;20446;-87
2023/08/18 10:46:25;;;;;;;11.40;4.20;;;29.90;99.90;;;;;;5004934;28;20467;-91
2023/08/18 10:48:52;;;;;;;4.20;3.60;;;30.00;99.90;;;;;;5008858;28;21011;-92
2023/08/18 10:51:18;;;;;;;7.10;3.83;;;29.80;99.90;;;;;;5003129;28;20531;-89
2023/08/18 10:53:45;;;;;;;5.70;3.77;;;29.80;99.90;;;;;;5012620;28;20458;-88
2023/08/18 10:56:12;;;;;;;6.63;4.37;;;29.80;99.90;;;;;;5006333;28;20483;-88
2023/08/18 10:58:39;;;;;;;8.27;4.20;;;29.90;99.90;;;;;;5003635;28;20475;-88
2023/08/18 11:01:08;;;;;;;6.70;4.37;;;29.80;99.90;;;;;;5004596;28;20493;-86
2023/08/18 11:03:36;;;;;;;3.73;3.43;;;29.80;99.90;;;;;;4997470;28;20447;-88
2023/08/18 11:06:04;;;;;;;4.67;4.20;;;29.60;99.90;;;;;;5006069;28;20477;-88
2023/08/18 11:08:31;;;;;;;5.17;4.10;;;29.60;99.90;;;;;;5008229;28;20517;-88
2023/08/18 11:10:58;;;;;;;6.23;3.97;;;29.50;99.90;;;;;;5008643;28;20478;-87
2023/08/18 11:13:26;;;;;;;4.70;4.00;;;29.70;99.90;;;;;;5007128;28;20876;-88
2023/08/18 11:15:54;;;;;;;4.77;3.90;;;30.00;99.90;;;;;;5002345;28;20459;-88
2023/08/18 11:18:21;;;;;;;5.83;4.20;;;30.30;99.90;;;;;;5004182;28;20482;-88
2023/08/18 11:20:51;;;;;;;6.80;4.10;;;30.30;99.90;;;;;;5008906;28;20486;-87
2023/08/18 11:23:18;;;;;;;7.30;4.00;;;30.40;99.90;;;;;;5008625;28;20446;-87
2023/08/18 11:25:45;;;;;;;3.90;3.60;;;30.50;99.90;;;;;;5008194;28;20459;-85
2023/08/18 11:28:13;;;;;;;11.77;4.60;;;30.70;99.90;;;;;;5007307;28;20489;-87
2023/08/18 11:30:40;;;;;;;6.10;4.13;;;31.10;99.90;;;;;;5007432;28;20463;-87
2023/08/18 11:33:06;;;;;;;4.30;3.37;;;31.20;99.90;;;;;;5004937;28;20467;-87
2023/08/18 11:35:33;;;;;;;5.13;3.73;;;31.10;99.90;;;;;;5006852;28;20451;-88
2023/08/18 11:38:03;;;;;;;6.70;3.30;;;31.00;99.90;;;;;;5002380;28;20947;-87
2023/08/18 11:40:35;;;;;;;14.40;3.93;;;31.10;99.90;;;;;;5007806;28;20533;-86
2023/08/18 11:43:02;;;;;;;4.20;3.63;;;31.30;99.90;;;;;;5003893;28;20471;-87
2023/08/18 11:45:29;;;;;;;4.80;3.33;;;31.30;99.90;;;;;;5003654;28;20502;-87
2023/08/18 11:48:00;;;;;;;3.80;3.50;;;31.60;99.90;;;;;;5014375;28;20469;-87
2023/08/18 11:50:31;;;;;;;4.37;3.67;;;31.70;99.90;;;;;;4998813;28;20486;-86
2023/08/18 11:52:58;;;;;;;6.60;4.00;;;31.80;99.90;;;;;;4998237;28;20457;-87
2023/08/18 11:55:33;;;;;;;11.90;3.90;;;31.90;99.90;;;;;;5004954;28;20955;-87
2023/08/18 11:58:05;;;;;;;4.20;3.40;;;32.20;99.90;;;;;;4999770;28;20587;-87
2023/08/18 12:00:35;;;;;;;5.73;4.17;;;31.90;99.90;;;;;;5000084;28;20518;-88
2023/08/18 12:03:03;;;;;;;3.80;3.50;;;31.90;99.90;;;;;;5008104;28;20481;-85
2023/08/18 12:05:30;;;;;;;5.83;3.30;;;31.50;99.90;;;;;;5008434;28;20461;-86
2023/08/18 12:07:59;;;;;;;4.27;3.60;;;31.70;99.90;;;;;;5005202;28;20491;-87
2023/08/18 12:10:26;;;;;;;8.33;4.20;;;31.90;99.90;;;;;;5005565;28;20573;-86
2023/08/18 12:12:54;;;;;;;7.80;3.50;;;32.00;99.90;;;;;;5013421;28;20903;-88
2023/08/18 12:15:23;;;;;;;5.67;3.40;;;32.20;99.90;;;;;;5004791;28;20451;-87
2023/08/18 12:17:50;;;;;;;3.63;3.07;;;32.30;99.90;;;;;;5004775;28;20509;-87
2023/08/18 12:20:19;;;;;;;5.90;3.53;;;32.30;99.90;;;;;;5012187;28;20956;-87
2023/08/18 12:22:46;;;;;;;4.30;3.10;;;32.20;99.90;;;;;;5008266;28;20920;-85
2023/08/18 12:25:13;;;;;;;4.00;3.60;;;32.30;99.90;;;;;;5007687;28;20549;-85
2023/08/18 12:27:39;;;;;;;5.30;3.17;;;32.20;99.90;;;;;;5013360;28;20528;-88
2023/08/18 12:30:09;;;;;;;7.60;3.13;;;32.00;99.90;;;;;;5004952;28;20482;-88
2023/08/18 12:32:35;;;;;;;5.73;3.20;;;32.20;99.90;;;;;;5005232;28;20439;-87
2023/08/18 12:35:03;;;;;;;4.77;3.20;;;32.20;99.90;;;;;;5014133;28;21015;-87
2023/08/18 12:37:30;;;;;;;3.63;3.23;;;32.00;99.90;;;;;;5007429;28;20564;-88
2023/08/18 12:39:57;;;;;;;3.43;2.83;;;31.80;99.90;;;;;;5014585;28;20446;-85